sensor_id;sensor_type;location;lat;lon;timestamp;P1;durP1;ratioP1;P2;durP2;ratioP2
32641;SDS011;19323;56.072;9.698;2022-07-17T00:00:59;1.60;;;0.40;;
32641;SDS011;19323;56.072;9.698;2022-07-17T00:03:25;1.35;;;0.45;;
32641;SDS011;19323;56.072;9.698;2022-07-17T00:05:52;2.10;;;0.60;;
32641;SDS011;19323;56.072;9.698;2022-07-17T00:08:18;1.98;;;0.57;;
32641;SDS011;19323;56.072;9.698;2022-07-17T00:10:45;0.90;;;0.47;;
32641;SDS011;19323;56.072;9.698;2022-07-17T00:13:11;3.65;;;0.70;;
32641;SDS011;19323;56.072;9.698;2022-07-17T00:15:38;2.35;;;0.75;;
32641;SDS011;19323;56.072;9.698;2022-07-17T00:18:04;2.45;;;0.70;;
32641;SDS011;19323;56.072;9.698;2022-07-17T00:20:33;2.25;;;0.55;;
32641;SDS011;19323;56.072;9.698;2022-07-17T00:22:59;0.98;;;0.40;;
32641;SDS011;19323;56.072;9.698;2022-07-17T00:25:26;2.42;;;0.50;;
32641;SDS011;19323;56.072;9.698;2022-07-17T00:27:53;1.13;;;0.63;;
32641;SDS011;19323;56.072;9.698;2022-07-17T00:30:19;2.45;;;0.50;;
32641;SDS011;19323;56.072;9.698;2022-07-17T00:32:46;2.17;;;0.70;;
32641;SDS011;19323;56.072;9.698;2022-07-17T00:35:13;1.27;;;0.40;;
32641;SDS011;19323;56.072;9.698;2022-07-17T00:37:46;0.45;;;0.38;;
32641;SDS011;19323;56.072;9.698;2022-07-17T00:40:16;2.50;;;0.50;;
32641;SDS011;19323;56.072;9.698;2022-07-17T00:42:44;3.63;;;0.60;;
32641;SDS011;19323;56.072;9.698;2022-07-17T00:45:11;4.43;;;0.50;;
32641;SDS011;19323;56.072;9.698;2022-07-17T00:47:58;0.90;;;0.30;;
32641;SDS011;19323;56.072;9.698;2022-07-17T00:50:28;0.88;;;0.40;;
32641;SDS011;19323;56.072;9.698;2022-07-17T00:52:57;3.58;;;0.45;;
32641;SDS011;19323;56.072;9.698;2022-07-17T00:55:24;4.95;;;0.70;;
32641;SDS011;19323;56.072;9.698;2022-07-17T00:58:10;5.40;;;0.73;;
32641;SDS011;19323;56.072;9.698;2022-07-17T01:00:38;1.23;;;0.40;;
32641;SDS011;19323;56.072;9.698;2022-07-17T01:03:05;3.17;;;0.50;;
32641;SDS011;19323;56.072;9.698;2022-07-17T01:05:35;5.22;;;0.90;;
32641;SDS011;19323;56.072;9.698;2022-07-17T01:08:02;1.00;;;0.40;;
32641;SDS011;19323;56.072;9.698;2022-07-17T01:10:29;1.55;;;0.50;;
32641;SDS011;19323;56.072;9.698;2022-07-17T01:12:55;4.57;;;0.40;;
32641;SDS011;19323;56.072;9.698;2022-07-17T01:15:22;2.15;;;0.43;;
32641;SDS011;19323;56.072;9.698;2022-07-17T01:17:50;1.08;;;0.38;;
32641;SDS011;19323;56.072;9.698;2022-07-17T01:20:16;1.77;;;0.70;;
32641;SDS011;19323;56.072;9.698;2022-07-17T01:22:44;3.20;;;0.50;;
32641;SDS011;19323;56.072;9.698;2022-07-17T01:25:14;1.77;;;0.60;;
32641;SDS011;19323;56.072;9.698;2022-07-17T01:27:42;5.28;;;0.43;;
32641;SDS011;19323;56.072;9.698;2022-07-17T01:30:09;3.38;;;0.20;;
32641;SDS011;19323;56.072;9.698;2022-07-17T01:32:39;2.08;;;0.35;;
32641;SDS011;19323;56.072;9.698;2022-07-17T01:35:08;1.10;;;0.35;;
32641;SDS011;19323;56.072;9.698;2022-07-17T01:37:36;2.03;;;0.70;;
32641;SDS011;19323;56.072;9.698;2022-07-17T01:40:05;2.53;;;0.30;;
32641;SDS011;19323;56.072;9.698;2022-07-17T01:42:32;1.73;;;0.57;;
32641;SDS011;19323;56.072;9.698;2022-07-17T01:44:59;1.95;;;0.50;;
32641;SDS011;19323;56.072;9.698;2022-07-17T01:47:25;2.35;;;0.50;;
32641;SDS011;19323;56.072;9.698;2022-07-17T01:49:55;2.88;;;0.90;;
32641;SDS011;19323;56.072;9.698;2022-07-17T01:52:23;2.40;;;0.52;;
32641;SDS011;19323;56.072;9.698;2022-07-17T01:54:51;1.38;;;0.30;;
32641;SDS011;19323;56.072;9.698;2022-07-17T01:57:18;1.35;;;0.40;;
32641;SDS011;19323;56.072;9.698;2022-07-17T01:59:45;2.60;;;0.60;;
32641;SDS011;19323;56.072;9.698;2022-07-17T02:02:11;2.55;;;0.50;;
32641;SDS011;19323;56.072;9.698;2022-07-17T02:04:39;2.50;;;0.70;;
32641;SDS011;19323;56.072;9.698;2022-07-17T02:07:09;2.25;;;0.45;;
32641;SDS011;19323;56.072;9.698;2022-07-17T02:09:36;1.50;;;0.40;;
32641;SDS011;19323;56.072;9.698;2022-07-17T02:12:03;3.63;;;1.05;;
32641;SDS011;19323;56.072;9.698;2022-07-17T02:14:29;1.70;;;0.30;;
32641;SDS011;19323;56.072;9.698;2022-07-17T02:16:56;1.75;;;0.30;;
32641;SDS011;19323;56.072;9.698;2022-07-17T02:19:23;1.38;;;0.40;;
32641;SDS011;19323;56.072;9.698;2022-07-17T02:21:49;2.35;;;0.93;;
32641;SDS011;19323;56.072;9.698;2022-07-17T02:24:16;0.98;;;0.30;;
32641;SDS011;19323;56.072;9.698;2022-07-17T02:26:43;1.58;;;0.40;;
32641;SDS011;19323;56.072;9.698;2022-07-17T02:29:10;2.15;;;0.40;;
32641;SDS011;19323;56.072;9.698;2022-07-17T02:31:37;2.10;;;0.40;;
32641;SDS011;19323;56.072;9.698;2022-07-17T02:34:04;3.15;;;0.40;;
32641;SDS011;19323;56.072;9.698;2022-07-17T02:36:30;2.63;;;0.30;;
32641;SDS011;19323;56.072;9.698;2022-07-17T02:38:57;2.20;;;0.45;;
32641;SDS011;19323;56.072;9.698;2022-07-17T02:41:24;2.17;;;0.40;;
32641;SDS011;19323;56.072;9.698;2022-07-17T02:43:50;1.25;;;0.32;;
32641;SDS011;19323;56.072;9.698;2022-07-17T02:46:17;3.55;;;0.43;;
32641;SDS011;19323;56.072;9.698;2022-07-17T02:48:43;2.45;;;0.52;;
32641;SDS011;19323;56.072;9.698;2022-07-17T02:51:10;1.95;;;0.68;;
32641;SDS011;19323;56.072;9.698;2022-07-17T02:53:36;1.50;;;0.35;;
32641;SDS011;19323;56.072;9.698;2022-07-17T02:56:03;6.25;;;1.00;;
32641;SDS011;19323;56.072;9.698;2022-07-17T02:58:30;1.42;;;0.60;;
32641;SDS011;19323;56.072;9.698;2022-07-17T03:00:56;1.77;;;0.60;;
32641;SDS011;19323;56.072;9.698;2022-07-17T03:03:23;1.40;;;0.40;;
32641;SDS011;19323;56.072;9.698;2022-07-17T03:05:50;2.00;;;0.60;;
32641;SDS011;19323;56.072;9.698;2022-07-17T03:08:16;1.25;;;0.43;;
32641;SDS011;19323;56.072;9.698;2022-07-17T03:10:43;1.98;;;0.32;;
32641;SDS011;19323;56.072;9.698;2022-07-17T03:13:09;3.42;;;0.50;;
32641;SDS011;19323;56.072;9.698;2022-07-17T03:15:36;3.15;;;0.30;;
32641;SDS011;19323;56.072;9.698;2022-07-17T03:18:02;1.65;;;0.40;;
32641;SDS011;19323;56.072;9.698;2022-07-17T03:20:29;1.40;;;0.65;;
32641;SDS011;19323;56.072;9.698;2022-07-17T03:22:56;1.67;;;0.63;;
32641;SDS011;19323;56.072;9.698;2022-07-17T03:25:23;3.10;;;0.63;;
32641;SDS011;19323;56.072;9.698;2022-07-17T03:27:49;1.25;;;0.40;;
32641;SDS011;19323;56.072;9.698;2022-07-17T03:30:15;2.85;;;0.60;;
32641;SDS011;19323;56.072;9.698;2022-07-17T03:32:42;1.38;;;0.22;;
32641;SDS011;19323;56.072;9.698;2022-07-17T03:35:08;1.02;;;0.25;;
32641;SDS011;19323;56.072;9.698;2022-07-17T03:37:35;1.77;;;0.40;;
32641;SDS011;19323;56.072;9.698;2022-07-17T03:40:04;0.82;;;0.32;;
32641;SDS011;19323;56.072;9.698;2022-07-17T03:42:32;1.20;;;0.32;;
32641;SDS011;19323;56.072;9.698;2022-07-17T03:44:59;2.10;;;0.52;;
32641;SDS011;19323;56.072;9.698;2022-07-17T03:47:25;2.95;;;0.68;;
32641;SDS011;19323;56.072;9.698;2022-07-17T03:49:52;1.50;;;0.40;;
32641;SDS011;19323;56.072;9.698;2022-07-17T03:52:18;1.08;;;0.40;;
32641;SDS011;19323;56.072;9.698;2022-07-17T03:54:45;0.88;;;0.40;;
32641;SDS011;19323;56.072;9.698;2022-07-17T03:57:11;1.30;;;0.32;;
32641;SDS011;19323;56.072;9.698;2022-07-17T03:59:38;0.90;;;0.20;;
32641;SDS011;19323;56.072;9.698;2022-07-17T04:02:04;2.20;;;0.93;;
32641;SDS011;19323;56.072;9.698;2022-07-17T04:04:31;1.00;;;0.38;;
32641;SDS011;19323;56.072;9.698;2022-07-17T04:06:57;2.60;;;0.50;;
32641;SDS011;19323;56.072;9.698;2022-07-17T04:09:24;2.28;;;0.57;;
32641;SDS011;19323;56.072;9.698;2022-07-17T04:11:50;1.02;;;0.57;;
32641;SDS011;19323;56.072;9.698;2022-07-17T04:14:17;0.98;;;0.40;;
32641;SDS011;19323;56.072;9.698;2022-07-17T04:16:43;1.38;;;0.50;;
32641;SDS011;19323;56.072;9.698;2022-07-17T04:19:10;6.40;;;0.50;;
32641;SDS011;19323;56.072;9.698;2022-07-17T04:21:37;4.38;;;0.63;;
32641;SDS011;19323;56.072;9.698;2022-07-17T04:24:03;0.90;;;0.50;;
32641;SDS011;19323;56.072;9.698;2022-07-17T04:26:30;1.60;;;0.60;;
32641;SDS011;19323;56.072;9.698;2022-07-17T04:28:59;2.65;;;0.70;;
32641;SDS011;19323;56.072;9.698;2022-07-17T04:31:25;3.70;;;0.80;;
32641;SDS011;19323;56.072;9.698;2022-07-17T04:33:52;1.92;;;0.40;;
32641;SDS011;19323;56.072;9.698;2022-07-17T04:36:20;3.92;;;0.70;;
32641;SDS011;19323;56.072;9.698;2022-07-17T04:38:46;2.97;;;0.52;;
32641;SDS011;19323;56.072;9.698;2022-07-17T04:41:13;2.42;;;0.30;;
32641;SDS011;19323;56.072;9.698;2022-07-17T04:43:39;5.18;;;0.47;;
32641;SDS011;19323;56.072;9.698;2022-07-17T04:46:06;2.53;;;0.35;;
32641;SDS011;19323;56.072;9.698;2022-07-17T04:48:32;1.40;;;0.30;;
32641;SDS011;19323;56.072;9.698;2022-07-17T04:50:59;1.67;;;0.40;;
32641;SDS011;19323;56.072;9.698;2022-07-17T04:53:25;4.45;;;0.93;;
32641;SDS011;19323;56.072;9.698;2022-07-17T04:55:52;2.08;;;0.60;;
32641;SDS011;19323;56.072;9.698;2022-07-17T04:58:19;2.30;;;0.30;;
32641;SDS011;19323;56.072;9.698;2022-07-17T05:00:45;5.80;;;0.57;;
32641;SDS011;19323;56.072;9.698;2022-07-17T05:03:12;2.28;;;0.88;;
32641;SDS011;19323;56.072;9.698;2022-07-17T05:05:39;1.73;;;0.50;;
32641;SDS011;19323;56.072;9.698;2022-07-17T05:08:06;2.17;;;0.40;;
32641;SDS011;19323;56.072;9.698;2022-07-17T05:10:33;1.75;;;0.47;;
32641;SDS011;19323;56.072;9.698;2022-07-17T05:12:59;4.03;;;0.32;;
32641;SDS011;19323;56.072;9.698;2022-07-17T05:15:26;2.80;;;0.85;;
32641;SDS011;19323;56.072;9.698;2022-07-17T05:17:52;1.05;;;0.40;;
32641;SDS011;19323;56.072;9.698;2022-07-17T05:20:19;1.90;;;0.73;;
32641;SDS011;19323;56.072;9.698;2022-07-17T05:22:45;3.25;;;0.75;;
32641;SDS011;19323;56.072;9.698;2022-07-17T05:25:12;1.63;;;0.70;;
32641;SDS011;19323;56.072;9.698;2022-07-17T05:27:38;3.95;;;0.60;;
32641;SDS011;19323;56.072;9.698;2022-07-17T05:30:05;1.27;;;0.50;;
32641;SDS011;19323;56.072;9.698;2022-07-17T05:32:32;2.22;;;0.40;;
32641;SDS011;19323;56.072;9.698;2022-07-17T05:34:58;3.15;;;0.43;;
32641;SDS011;19323;56.072;9.698;2022-07-17T05:37:25;1.52;;;0.57;;
32641;SDS011;19323;56.072;9.698;2022-07-17T05:39:52;1.65;;;0.35;;
32641;SDS011;19323;56.072;9.698;2022-07-17T05:42:18;3.42;;;0.60;;
32641;SDS011;19323;56.072;9.698;2022-07-17T05:44:45;2.83;;;1.00;;
32641;SDS011;19323;56.072;9.698;2022-07-17T05:47:11;2.17;;;0.47;;
32641;SDS011;19323;56.072;9.698;2022-07-17T05:49:38;1.48;;;0.40;;
32641;SDS011;19323;56.072;9.698;2022-07-17T05:52:04;1.60;;;0.50;;
32641;SDS011;19323;56.072;9.698;2022-07-17T05:54:31;1.50;;;0.60;;
32641;SDS011;19323;56.072;9.698;2022-07-17T05:57:02;1.02;;;0.45;;
32641;SDS011;19323;56.072;9.698;2022-07-17T05:59:35;2.53;;;0.38;;
32641;SDS011;19323;56.072;9.698;2022-07-17T06:02:02;2.38;;;0.25;;
32641;SDS011;19323;56.072;9.698;2022-07-17T06:04:29;1.30;;;0.40;;
32641;SDS011;19323;56.072;9.698;2022-07-17T06:06:55;1.10;;;0.50;;
32641;SDS011;19323;56.072;9.698;2022-07-17T06:09:22;1.30;;;0.30;;
32641;SDS011;19323;56.072;9.698;2022-07-17T06:11:48;1.23;;;0.40;;
32641;SDS011;19323;56.072;9.698;2022-07-17T06:14:15;2.22;;;0.40;;
32641;SDS011;19323;56.072;9.698;2022-07-17T06:16:42;0.85;;;0.20;;
32641;SDS011;19323;56.072;9.698;2022-07-17T06:19:08;1.65;;;0.50;;
32641;SDS011;19323;56.072;9.698;2022-07-17T06:21:35;1.52;;;0.50;;
32641;SDS011;19323;56.072;9.698;2022-07-17T06:24:01;3.63;;;0.90;;
32641;SDS011;19323;56.072;9.698;2022-07-17T06:26:28;2.17;;;0.50;;
32641;SDS011;19323;56.072;9.698;2022-07-17T06:28:54;1.65;;;0.32;;
32641;SDS011;19323;56.072;9.698;2022-07-17T06:31:21;2.08;;;0.35;;
32641;SDS011;19323;56.072;9.698;2022-07-17T06:33:48;3.45;;;0.45;;
32641;SDS011;19323;56.072;9.698;2022-07-17T06:36:15;2.38;;;0.57;;
32641;SDS011;19323;56.072;9.698;2022-07-17T06:38:41;1.13;;;0.43;;
32641;SDS011;19323;56.072;9.698;2022-07-17T06:41:07;3.22;;;0.50;;
32641;SDS011;19323;56.072;9.698;2022-07-17T06:43:34;2.92;;;0.40;;
32641;SDS011;19323;56.072;9.698;2022-07-17T06:46:00;1.50;;;0.40;;
32641;SDS011;19323;56.072;9.698;2022-07-17T06:48:29;3.17;;;0.63;;
32641;SDS011;19323;56.072;9.698;2022-07-17T06:50:56;0.85;;;0.40;;
32641;SDS011;19323;56.072;9.698;2022-07-17T06:53:22;2.05;;;0.70;;
32641;SDS011;19323;56.072;9.698;2022-07-17T06:55:49;1.33;;;0.40;;
32641;SDS011;19323;56.072;9.698;2022-07-17T06:58:15;1.48;;;0.50;;
32641;SDS011;19323;56.072;9.698;2022-07-17T07:00:42;2.60;;;0.55;;
32641;SDS011;19323;56.072;9.698;2022-07-17T07:03:08;2.58;;;0.35;;
32641;SDS011;19323;56.072;9.698;2022-07-17T07:05:35;4.20;;;0.40;;
32641;SDS011;19323;56.072;9.698;2022-07-17T07:08:02;3.60;;;0.70;;
32641;SDS011;19323;56.072;9.698;2022-07-17T07:10:28;3.92;;;0.80;;
32641;SDS011;19323;56.072;9.698;2022-07-17T07:12:55;5.97;;;0.70;;
32641;SDS011;19323;56.072;9.698;2022-07-17T07:15:22;3.22;;;1.05;;
32641;SDS011;19323;56.072;9.698;2022-07-17T07:17:50;4.97;;;1.13;;
32641;SDS011;19323;56.072;9.698;2022-07-17T07:20:16;9.90;;;0.75;;
32641;SDS011;19323;56.072;9.698;2022-07-17T07:22:43;4.53;;;0.82;;
32641;SDS011;19323;56.072;9.698;2022-07-17T07:25:09;6.18;;;1.00;;
32641;SDS011;19323;56.072;9.698;2022-07-17T07:27:36;2.10;;;0.50;;
32641;SDS011;19323;56.072;9.698;2022-07-17T07:30:03;1.92;;;0.70;;
32641;SDS011;19323;56.072;9.698;2022-07-17T07:32:30;5.47;;;0.60;;
32641;SDS011;19323;56.072;9.698;2022-07-17T07:34:56;1.42;;;0.50;;
32641;SDS011;19323;56.072;9.698;2022-07-17T07:37:22;4.60;;;0.73;;
32641;SDS011;19323;56.072;9.698;2022-07-17T07:39:49;4.85;;;1.05;;
32641;SDS011;19323;56.072;9.698;2022-07-17T07:42:15;3.03;;;0.70;;
32641;SDS011;19323;56.072;9.698;2022-07-17T07:44:42;3.35;;;1.10;;
32641;SDS011;19323;56.072;9.698;2022-07-17T07:47:09;3.58;;;0.82;;
32641;SDS011;19323;56.072;9.698;2022-07-17T07:49:35;7.47;;;1.55;;
32641;SDS011;19323;56.072;9.698;2022-07-17T07:52:05;4.93;;;1.48;;
32641;SDS011;19323;56.072;9.698;2022-07-17T07:54:33;5.65;;;1.90;;
32641;SDS011;19323;56.072;9.698;2022-07-17T07:56:59;8.02;;;2.47;;
32641;SDS011;19323;56.072;9.698;2022-07-17T07:59:26;7.18;;;2.20;;
32641;SDS011;19323;56.072;9.698;2022-07-17T08:01:53;7.97;;;2.42;;
32641;SDS011;19323;56.072;9.698;2022-07-17T08:04:19;7.57;;;2.97;;
32641;SDS011;19323;56.072;9.698;2022-07-17T08:06:46;8.57;;;2.58;;
32641;SDS011;19323;56.072;9.698;2022-07-17T08:09:12;20.17;;;4.13;;
32641;SDS011;19323;56.072;9.698;2022-07-17T08:11:39;10.07;;;3.08;;
32641;SDS011;19323;56.072;9.698;2022-07-17T08:14:05;7.97;;;2.58;;
32641;SDS011;19323;56.072;9.698;2022-07-17T08:16:41;12.43;;;3.42;;
32641;SDS011;19323;56.072;9.698;2022-07-17T08:19:08;11.73;;;4.25;;
32641;SDS011;19323;56.072;9.698;2022-07-17T08:21:35;15.95;;;4.10;;
32641;SDS011;19323;56.072;9.698;2022-07-17T08:24:02;11.90;;;4.32;;
32641;SDS011;19323;56.072;9.698;2022-07-17T08:26:28;13.15;;;4.47;;
32641;SDS011;19323;56.072;9.698;2022-07-17T08:28:55;12.70;;;4.60;;
32641;SDS011;19323;56.072;9.698;2022-07-17T08:31:22;12.60;;;4.05;;
32641;SDS011;19323;56.072;9.698;2022-07-17T08:33:49;8.65;;;4.53;;
32641;SDS011;19323;56.072;9.698;2022-07-17T08:36:15;10.40;;;3.38;;
32641;SDS011;19323;56.072;9.698;2022-07-17T08:38:42;7.95;;;2.95;;
32641;SDS011;19323;56.072;9.698;2022-07-17T08:41:09;9.80;;;3.20;;
32641;SDS011;19323;56.072;9.698;2022-07-17T08:43:41;9.10;;;4.22;;
32641;SDS011;19323;56.072;9.698;2022-07-17T08:46:12;9.05;;;4.30;;
32641;SDS011;19323;56.072;9.698;2022-07-17T08:48:44;11.30;;;4.22;;
32641;SDS011;19323;56.072;9.698;2022-07-17T08:51:12;8.43;;;3.22;;
32641;SDS011;19323;56.072;9.698;2022-07-17T08:53:41;6.38;;;3.35;;
32641;SDS011;19323;56.072;9.698;2022-07-17T08:56:10;9.00;;;4.13;;
32641;SDS011;19323;56.072;9.698;2022-07-17T08:58:37;12.70;;;3.92;;
32641;SDS011;19323;56.072;9.698;2022-07-17T09:01:04;11.43;;;3.67;;
32641;SDS011;19323;56.072;9.698;2022-07-17T09:03:31;6.40;;;2.85;;
32641;SDS011;19323;56.072;9.698;2022-07-17T09:08:31;7.75;;;3.13;;
32641;SDS011;19323;56.072;9.698;2022-07-17T09:11:01;10.27;;;2.97;;
32641;SDS011;19323;56.072;9.698;2022-07-17T09:13:31;7.82;;;3.72;;
32641;SDS011;19323;56.072;9.698;2022-07-17T09:16:08;10.25;;;3.13;;
32641;SDS011;19323;56.072;9.698;2022-07-17T09:18:43;5.10;;;2.53;;
32641;SDS011;19323;56.072;9.698;2022-07-17T09:21:16;6.53;;;2.97;;
32641;SDS011;19323;56.072;9.698;2022-07-17T09:23:44;6.13;;;2.40;;
32641;SDS011;19323;56.072;9.698;2022-07-17T09:26:11;5.38;;;2.38;;
32641;SDS011;19323;56.072;9.698;2022-07-17T09:28:44;6.40;;;2.58;;
32641;SDS011;19323;56.072;9.698;2022-07-17T09:31:23;3.83;;;1.60;;
32641;SDS011;19323;56.072;9.698;2022-07-17T09:33:54;4.25;;;2.03;;
32641;SDS011;19323;56.072;9.698;2022-07-17T09:36:21;6.78;;;2.22;;
32641;SDS011;19323;56.072;9.698;2022-07-17T09:38:49;5.68;;;2.13;;
32641;SDS011;19323;56.072;9.698;2022-07-17T09:41:20;9.30;;;2.45;;
32641;SDS011;19323;56.072;9.698;2022-07-17T09:46:31;5.72;;;2.58;;
32641;SDS011;19323;56.072;9.698;2022-07-17T09:49:05;6.68;;;1.90;;
32641;SDS011;19323;56.072;9.698;2022-07-17T09:51:36;4.97;;;1.50;;
32641;SDS011;19323;56.072;9.698;2022-07-17T09:54:05;5.65;;;1.92;;
32641;SDS011;19323;56.072;9.698;2022-07-17T09:56:36;2.92;;;1.48;;
32641;SDS011;19323;56.072;9.698;2022-07-17T09:59:04;3.90;;;1.70;;
32641;SDS011;19323;56.072;9.698;2022-07-17T10:01:31;9.38;;;1.70;;
32641;SDS011;19323;56.072;9.698;2022-07-17T10:04:00;3.17;;;1.45;;
32641;SDS011;19323;56.072;9.698;2022-07-17T10:06:27;3.28;;;1.40;;
32641;SDS011;19323;56.072;9.698;2022-07-17T10:08:55;6.38;;;1.88;;
32641;SDS011;19323;56.072;9.698;2022-07-17T10:11:23;3.80;;;1.30;;
32641;SDS011;19323;56.072;9.698;2022-07-17T10:13:53;7.80;;;1.30;;
32641;SDS011;19323;56.072;9.698;2022-07-17T10:18:53;4.90;;;1.23;;
32641;SDS011;19323;56.072;9.698;2022-07-17T10:21:25;3.45;;;1.35;;
32641;SDS011;19323;56.072;9.698;2022-07-17T10:29:13;4.30;;;1.27;;
32641;SDS011;19323;56.072;9.698;2022-07-17T10:31:53;1.48;;;0.80;;
32641;SDS011;19323;56.072;9.698;2022-07-17T10:34:22;1.75;;;1.25;;
32641;SDS011;19323;56.072;9.698;2022-07-17T10:37:17;3.03;;;1.27;;
32641;SDS011;19323;56.072;9.698;2022-07-17T10:40:15;2.38;;;0.75;;
32641;SDS011;19323;56.072;9.698;2022-07-17T10:42:41;2.83;;;1.35;;
32641;SDS011;19323;56.072;9.698;2022-07-17T10:47:59;4.40;;;1.20;;
32641;SDS011;19323;56.072;9.698;2022-07-17T10:50:30;2.58;;;1.10;;
32641;SDS011;19323;56.072;9.698;2022-07-17T10:55:47;1.27;;;0.93;;
32641;SDS011;19323;56.072;9.698;2022-07-17T10:58:23;2.00;;;1.13;;
32641;SDS011;19323;56.072;9.698;2022-07-17T11:03:22;2.60;;;0.98;;
32641;SDS011;19323;56.072;9.698;2022-07-17T11:05:49;2.83;;;1.10;;
32641;SDS011;19323;56.072;9.698;2022-07-17T11:08:16;3.33;;;0.85;;
32641;SDS011;19323;56.072;9.698;2022-07-17T11:10:42;3.13;;;1.30;;
32641;SDS011;19323;56.072;9.698;2022-07-17T11:13:18;2.88;;;1.10;;
32641;SDS011;19323;56.072;9.698;2022-07-17T11:15:45;2.47;;;0.98;;
32641;SDS011;19323;56.072;9.698;2022-07-17T11:18:17;2.50;;;1.00;;
32641;SDS011;19323;56.072;9.698;2022-07-17T11:20:49;2.65;;;1.27;;
32641;SDS011;19323;56.072;9.698;2022-07-17T11:23:20;2.92;;;1.20;;
32641;SDS011;19323;56.072;9.698;2022-07-17T11:25:52;2.03;;;1.15;;
32641;SDS011;19323;56.072;9.698;2022-07-17T11:30:59;5.32;;;1.15;;
32641;SDS011;19323;56.072;9.698;2022-07-17T11:33:26;1.50;;;0.80;;
32641;SDS011;19323;56.072;9.698;2022-07-17T11:35:53;4.38;;;1.45;;
32641;SDS011;19323;56.072;9.698;2022-07-17T11:38:23;3.00;;;1.10;;
32641;SDS011;19323;56.072;9.698;2022-07-17T11:40:51;4.45;;;1.20;;
32641;SDS011;19323;56.072;9.698;2022-07-17T11:43:26;3.03;;;1.40;;
32641;SDS011;19323;56.072;9.698;2022-07-17T11:45:53;3.15;;;1.08;;
32641;SDS011;19323;56.072;9.698;2022-07-17T11:48:20;4.20;;;1.40;;
32641;SDS011;19323;56.072;9.698;2022-07-17T11:50:53;3.05;;;1.15;;
32641;SDS011;19323;56.072;9.698;2022-07-17T11:53:30;4.65;;;1.90;;
32641;SDS011;19323;56.072;9.698;2022-07-17T11:55:58;5.03;;;1.25;;
32641;SDS011;19323;56.072;9.698;2022-07-17T11:58:25;2.90;;;1.17;;
32641;SDS011;19323;56.072;9.698;2022-07-17T12:01:02;3.28;;;1.38;;
32641;SDS011;19323;56.072;9.698;2022-07-17T12:03:30;3.50;;;1.80;;
32641;SDS011;19323;56.072;9.698;2022-07-17T12:05:57;2.85;;;1.25;;
32641;SDS011;19323;56.072;9.698;2022-07-17T12:08:23;2.92;;;1.08;;
32641;SDS011;19323;56.072;9.698;2022-07-17T12:11:06;5.32;;;1.30;;
32641;SDS011;19323;56.072;9.698;2022-07-17T12:13:38;3.35;;;0.90;;
32641;SDS011;19323;56.072;9.698;2022-07-17T12:16:23;2.05;;;1.00;;
32641;SDS011;19323;56.072;9.698;2022-07-17T12:19:02;2.75;;;1.52;;
32641;SDS011;19323;56.072;9.698;2022-07-17T12:21:32;2.47;;;1.20;;
32641;SDS011;19323;56.072;9.698;2022-07-17T12:24:01;5.78;;;1.05;;
32641;SDS011;19323;56.072;9.698;2022-07-17T12:26:31;4.10;;;1.63;;
32641;SDS011;19323;56.072;9.698;2022-07-17T12:28:59;1.50;;;1.00;;
32641;SDS011;19323;56.072;9.698;2022-07-17T12:31:27;1.67;;;0.90;;
32641;SDS011;19323;56.072;9.698;2022-07-17T12:33:54;2.50;;;1.08;;
32641;SDS011;19323;56.072;9.698;2022-07-17T12:36:21;4.82;;;1.48;;
32641;SDS011;19323;56.072;9.698;2022-07-17T12:38:48;5.88;;;1.17;;
32641;SDS011;19323;56.072;9.698;2022-07-17T12:41:16;2.92;;;1.30;;
32641;SDS011;19323;56.072;9.698;2022-07-17T12:43:42;4.75;;;1.40;;
32641;SDS011;19323;56.072;9.698;2022-07-17T12:46:10;1.90;;;1.00;;
32641;SDS011;19323;56.072;9.698;2022-07-17T12:48:43;5.57;;;1.47;;
32641;SDS011;19323;56.072;9.698;2022-07-17T12:51:12;3.38;;;1.45;;
32641;SDS011;19323;56.072;9.698;2022-07-17T12:53:42;3.83;;;1.10;;
32641;SDS011;19323;56.072;9.698;2022-07-17T12:56:09;5.80;;;1.40;;
32641;SDS011;19323;56.072;9.698;2022-07-17T12:58:36;3.30;;;1.65;;
32641;SDS011;19323;56.072;9.698;2022-07-17T13:01:03;3.65;;;1.50;;
32641;SDS011;19323;56.072;9.698;2022-07-17T13:03:32;2.58;;;1.10;;
32641;SDS011;19323;56.072;9.698;2022-07-17T13:05:59;4.07;;;1.10;;
32641;SDS011;19323;56.072;9.698;2022-07-17T13:08:27;3.50;;;1.23;;
32641;SDS011;19323;56.072;9.698;2022-07-17T13:10:54;2.58;;;1.30;;
32641;SDS011;19323;56.072;9.698;2022-07-17T13:13:21;2.30;;;1.23;;
32641;SDS011;19323;56.072;9.698;2022-07-17T13:15:48;1.67;;;1.10;;
32641;SDS011;19323;56.072;9.698;2022-07-17T13:18:15;1.75;;;1.13;;
32641;SDS011;19323;56.072;9.698;2022-07-17T13:20:41;2.28;;;1.35;;
32641;SDS011;19323;56.072;9.698;2022-07-17T13:23:08;3.33;;;1.55;;
32641;SDS011;19323;56.072;9.698;2022-07-17T13:25:35;6.05;;;1.52;;
32641;SDS011;19323;56.072;9.698;2022-07-17T13:28:01;3.20;;;1.67;;
32641;SDS011;19323;56.072;9.698;2022-07-17T13:30:28;9.10;;;2.15;;
32641;SDS011;19323;56.072;9.698;2022-07-17T13:32:55;4.70;;;1.75;;
32641;SDS011;19323;56.072;9.698;2022-07-17T13:35:23;4.05;;;1.80;;
32641;SDS011;19323;56.072;9.698;2022-07-17T13:37:50;5.80;;;1.45;;
32641;SDS011;19323;56.072;9.698;2022-07-17T13:40:16;2.97;;;1.63;;
32641;SDS011;19323;56.072;9.698;2022-07-17T13:42:45;5.93;;;1.70;;
32641;SDS011;19323;56.072;9.698;2022-07-17T13:45:12;3.17;;;1.50;;
32641;SDS011;19323;56.072;9.698;2022-07-17T13:47:39;5.57;;;2.05;;
32641;SDS011;19323;56.072;9.698;2022-07-17T13:50:05;6.65;;;2.30;;
32641;SDS011;19323;56.072;9.698;2022-07-17T13:52:39;7.72;;;2.35;;
32641;SDS011;19323;56.072;9.698;2022-07-17T13:55:06;3.13;;;1.60;;
32641;SDS011;19323;56.072;9.698;2022-07-17T13:57:53;2.28;;;1.63;;
32641;SDS011;19323;56.072;9.698;2022-07-17T14:00:19;5.47;;;1.67;;
32641;SDS011;19323;56.072;9.698;2022-07-17T14:02:46;3.33;;;1.38;;
32641;SDS011;19323;56.072;9.698;2022-07-17T14:05:13;1.77;;;1.05;;
32641;SDS011;19323;56.072;9.698;2022-07-17T14:07:39;2.47;;;1.20;;
32641;SDS011;19323;56.072;9.698;2022-07-17T14:10:07;2.67;;;1.50;;
32641;SDS011;19323;56.072;9.698;2022-07-17T14:12:33;5.15;;;1.10;;
32641;SDS011;19323;56.072;9.698;2022-07-17T14:15:00;3.95;;;1.30;;
32641;SDS011;19323;56.072;9.698;2022-07-17T14:17:27;3.20;;;1.42;;
32641;SDS011;19323;56.072;9.698;2022-07-17T14:19:53;3.72;;;1.48;;
32641;SDS011;19323;56.072;9.698;2022-07-17T14:22:20;2.65;;;1.20;;
32641;SDS011;19323;56.072;9.698;2022-07-17T14:24:47;2.10;;;1.20;;
32641;SDS011;19323;56.072;9.698;2022-07-17T14:27:13;2.10;;;1.45;;
32641;SDS011;19323;56.072;9.698;2022-07-17T14:29:40;3.55;;;0.80;;
32641;SDS011;19323;56.072;9.698;2022-07-17T14:32:07;3.90;;;1.30;;
32641;SDS011;19323;56.072;9.698;2022-07-17T14:34:34;2.55;;;1.45;;
32641;SDS011;19323;56.072;9.698;2022-07-17T14:37:01;4.78;;;1.27;;
32641;SDS011;19323;56.072;9.698;2022-07-17T14:39:29;3.35;;;1.83;;
32641;SDS011;19323;56.072;9.698;2022-07-17T14:41:55;19.10;;;6.43;;
32641;SDS011;19323;56.072;9.698;2022-07-17T14:44:22;9.10;;;4.40;;
32641;SDS011;19323;56.072;9.698;2022-07-17T14:46:49;12.23;;;5.65;;
32641;SDS011;19323;56.072;9.698;2022-07-17T14:49:16;17.85;;;4.75;;
32641;SDS011;19323;56.072;9.698;2022-07-17T14:51:50;10.63;;;4.18;;
32641;SDS011;19323;56.072;9.698;2022-07-17T14:54:18;8.27;;;3.38;;
32641;SDS011;19323;56.072;9.698;2022-07-17T14:56:44;7.43;;;3.20;;
32641;SDS011;19323;56.072;9.698;2022-07-17T14:59:11;11.63;;;3.42;;
32641;SDS011;19323;56.072;9.698;2022-07-17T15:01:37;7.78;;;2.95;;
32641;SDS011;19323;56.072;9.698;2022-07-17T15:04:04;5.70;;;2.67;;
32641;SDS011;19323;56.072;9.698;2022-07-17T15:06:31;8.00;;;3.72;;
32641;SDS011;19323;56.072;9.698;2022-07-17T15:08:57;5.78;;;3.10;;
32641;SDS011;19323;56.072;9.698;2022-07-17T15:11:24;6.22;;;3.20;;
32641;SDS011;19323;56.072;9.698;2022-07-17T15:13:50;6.43;;;2.78;;
32641;SDS011;19323;56.072;9.698;2022-07-17T15:16:17;7.45;;;2.40;;